Time;durP1;ratioP1;P1;durP2;ratioP2;P2;SDS_P1;SDS_P2;PMS_P1;PMS_P2;Temp;Humidity;BMP_temperature;BMP_pressure;BME280_temperature;BME280_humidity;BME280_pressure;Samples;Min_cycle;Max_cycle;Signal;HPM_P1;HPM_P2
2020/12/09 00:01:32;;;;;;;58.50;26.67;;;;;;;-0.77;79.76;100529.63;5149554;56;1140850;-84
2020/12/09 00:06:39;;;;;;;58.63;25.57;;;;;;;-0.80;79.93;100533.16;5145642;56;1141188;-84
2020/12/09 00:11:45;;;;;;;56.67;26.20;;;;;;;-0.81;79.70;100531.45;5152774;56;1140350;-84
2020/12/09 00:16:51;;;;;;;62.53;24.50;;;;;;;-0.80;79.91;100532.31;5128788;56;1140317;-84
2020/12/09 00:21:56;;;;;;;56.23;24.27;;;;;;;-0.77;79.99;100533.52;5189575;56;1140256;-84
2020/12/09 00:27:02;;;;;;;60.07;25.83;;;;;;;-0.80;80.28;100526.67;5148923;56;1140489;-84
2020/12/09 00:32:07;;;;;;;56.70;25.00;;;;;;;-0.81;80.30;100525.41;5144715;56;1140306;-84
2020/12/09 00:37:13;;;;;;;65.87;25.70;;;;;;;-0.83;80.77;100526.75;5135942;56;1140673;-84
2020/12/09 00:42:18;;;;;;;58.02;25.05;;;;;;;-0.82;80.77;100527.16;5161698;56;1140338;-84
2020/12/09 00:47:24;;;;;;;55.47;25.70;;;;;;;-0.79;80.66;100535.31;5141379;56;1140415;-84
2020/12/09 00:52:31;;;;;;;54.42;25.72;;;;;;;-0.78;80.53;100531.81;5118409;56;1140480;-84
2020/12/09 00:57:38;;;;;;;56.07;21.13;;;;;;;-0.81;81.35;100524.11;5101243;56;1140573;-85
2020/12/09 01:02:44;;;;;;;60.40;25.80;;;;;;;-0.82;81.66;100521.11;5121444;56;1140473;-84
2020/12/09 01:07:50;;;;;;;53.97;20.73;;;;;;;-0.81;81.65;100512.43;5109606;56;1140974;-84
2020/12/09 01:12:56;;;;;;;51.63;23.73;;;;;;;-0.79;82.20;100520.58;5095863;56;1141200;-84
2020/12/09 01:18:01;;;;;;;50.77;19.63;;;;;;;-0.76;82.11;100523.05;5100610;56;1140341;-84
2020/12/09 01:23:07;;;;;;;55.28;24.40;;;;;;;-0.67;82.04;100523.23;5111256;56;1140481;-84
2020/12/09 01:28:13;;;;;;;50.78;22.02;;;;;;;-0.67;82.04;100523.23;5102703;56;1140439;-84
2020/12/09 01:33:19;;;;;;;36.43;15.60;;;;;;;-0.65;82.65;100517.99;5111617;56;1140619;-85
2020/12/09 01:38:24;;;;;;;55.38;23.87;;;;;;;-0.60;82.89;100519.97;5105801;56;1148573;-84
2020/12/09 01:43:30;;;;;;;58.77;25.50;;;;;;;-0.56;82.80;100518.98;5136520;56;1140418;-84
2020/12/09 01:48:35;;;;;;;60.77;23.33;;;;;;;-0.55;82.77;100531.08;5121920;56;1140440;-84
2020/12/09 01:53:42;;;;;;;45.03;17.80;;;;;;;-0.52;82.61;100529.69;5178918;56;1140412;-85
2020/12/09 01:58:50;;;;;;;41.18;18.32;;;;;;;-0.54;83.21;100521.09;5134805;56;1140480;-84
2020/12/09 02:03:56;;;;;;;52.43;23.47;;;;;;;-0.54;83.35;100514.59;5166361;56;1140452;-85
2020/12/09 02:09:01;;;;;;;58.97;24.63;;;;;;;-0.53;83.14;100528.84;5146118;56;1140741;-85
2020/12/09 02:14:07;;;;;;;52.00;23.80;;;;;;;-0.49;82.94;100533.05;5128931;56;1140547;-84
2020/12/09 02:19:12;;;;;;;50.87;22.80;;;;;;;-0.48;82.54;100536.49;5166712;56;1141045;-85
2020/12/09 02:24:18;;;;;;;53.70;24.13;;;;;;;-0.46;82.39;100538.59;5223934;56;21167;-85
2020/12/09 02:29:24;;;;;;;48.40;21.52;;;;;;;-0.49;82.70;100539.54;5201694;56;1136282;-84
2020/12/09 02:34:29;;;;;;;48.90;22.70;;;;;;;-0.47;82.55;100536.89;5136553;56;1140716;-85
2020/12/09 02:39:37;;;;;;;46.30;20.97;;;;;;;-0.48;82.77;100532.15;5137479;56;1140770;-85
2020/12/09 02:44:43;;;;;;;50.10;20.93;;;;;;;-0.46;82.49;100529.50;5143197;56;1140528;-85
2020/12/09 02:49:48;;;;;;;49.90;22.53;;;;;;;-0.52;82.77;100525.34;5140585;56;1140902;-85
2020/12/09 02:54:54;;;;;;;50.70;22.83;;;;;;;-0.52;82.27;100520.15;5148656;56;1141783;-85
2020/12/09 03:00:00;;;;;;;50.07;22.60;;;;;;;-0.61;82.77;100510.52;5130341;56;1140636;-84
2020/12/09 03:05:05;;;;;;;52.45;25.17;;;;;;;-0.61;82.77;100510.52;5188922;56;1138222;-84
2020/12/09 03:10:11;;;;;;;49.33;21.03;;;;;;;-0.57;82.44;100518.59;5200052;56;1140611;-85
2020/12/09 03:15:16;;;;;;;60.73;25.80;;;;;;;-0.60;82.39;100520.83;5138276;56;1140574;-85
2020/12/09 03:20:22;;;;;;;55.97;24.37;;;;;;;-0.60;82.33;100513.03;5180177;56;1140825;-84
2020/12/09 03:25:28;;;;;;;58.70;25.03;;;;;;;-0.61;82.05;100511.81;5219465;56;21136;-85
2020/12/09 03:30:33;;;;;;;56.53;23.15;;;;;;;-0.61;81.91;100510.03;5121100;56;1136320;-85
2020/12/09 03:35:39;;;;;;;59.60;25.80;;;;;;;-0.64;81.82;100506.27;5137298;56;1140390;-85
2020/12/09 03:40:44;;;;;;;46.80;22.50;;;;;;;-0.60;81.60;100509.14;5127894;56;1140485;-85
2020/12/09 03:45:50;;;;;;;42.10;19.90;;;;;;;-0.61;81.43;100518.30;5126330;56;1140477;-85
2020/12/09 03:50:55;;;;;;;40.80;19.50;;;;;;;-0.63;81.32;100515.75;5150577;56;1140322;-85
2020/12/09 03:56:02;;;;;;;45.25;21.17;;;;;;;-0.62;81.20;100526.55;5115545;56;1140390;-85
2020/12/09 04:01:07;;;;;;;41.17;20.37;;;;;;;-0.61;80.99;100532.59;5100846;56;1140387;-85
2020/12/09 04:06:13;;;;;;;47.53;22.00;;;;;;;-0.64;80.86;100536.58;5097161;56;1140300;-85
2020/12/09 04:11:18;;;;;;;44.20;21.07;;;;;;;-0.65;80.82;100542.22;5169157;56;1140567;-85
2020/12/09 04:16:24;;;;;;;37.07;17.30;;;;;;;-0.70;80.72;100538.91;5108066;56;1140672;-85
2020/12/09 04:21:29;;;;;;;42.23;21.63;;;;;;;-0.74;80.68;100540.73;5143190;56;1140288;-85
2020/12/09 04:26:35;;;;;;;39.63;16.03;;;;;;;-0.73;80.61;100541.14;5168631;56;1140539;-85
2020/12/09 04:31:40;;;;;;;46.87;18.93;;;;;;;-0.75;80.58;100546.83;5106894;56;1140401;-85
2020/12/09 04:36:47;;;;;;;36.97;18.00;;;;;;;-0.74;80.51;100533.40;5144750;56;1138345;-85
2020/12/09 04:41:53;;;;;;;39.07;18.20;;;;;;;-0.75;80.47;100538.19;5202042;56;21201;-85
2020/12/09 04:47:04;;;;;;;81.30;29.57;;;;;;;-0.78;80.42;100527.92;5105752;56;1136342;-85
2020/12/09 04:52:21;;;;;;;53.97;24.13;;;;;;;-0.82;80.46;100526.31;5093468;56;1140374;-85
2020/12/09 04:57:43;;;;;;;48.63;20.90;;;;;;;-0.86;80.46;100522.95;5085637;56;1140619;-85
2020/12/09 05:02:53;;;;;;;44.23;19.40;;;;;;;-0.85;80.43;100530.29;5125675;57;1140304;-85
2020/12/09 05:08:01;;;;;;;43.13;20.77;;;;;;;-0.87;80.46;100526.44;5178319;57;21153;-85
2020/12/09 05:13:10;;;;;;;75.93;28.73;;;;;;;-0.86;80.42;100535.08;5183059;57;21166;-85
2020/12/09 05:18:18;;;;;;;83.00;34.33;;;;;;;-0.85;80.39;100544.56;5183459;57;21496;-86
2020/12/09 05:23:26;;;;;;;73.83;27.87;;;;;;;-0.86;80.29;100543.72;5162116;57;1136304;-85
2020/12/09 05:28:31;;;;;;;45.48;19.23;;;;;;;-0.86;80.22;100546.77;5085076;57;1140627;-85
2020/12/09 05:33:37;;;;;;;44.18;19.27;;;;;;;-0.87;80.21;100548.95;5099991;56;1140374;-85
2020/12/09 05:38:42;;;;;;;43.73;19.77;;;;;;;-0.90;80.20;100544.70;5164406;57;1140576;-86
2020/12/09 05:43:48;;;;;;;55.38;22.45;;;;;;;-0.92;80.30;100558.20;5085987;57;1140656;-85
2020/12/09 05:48:54;;;;;;;53.80;21.67;;;;;;;-0.95;80.24;100560.88;5100010;57;1140302;-86
2020/12/09 05:59:50;;;;;;;32.80;14.60;;;;;;;-0.91;80.27;100583.23;4740651;61;21219;-86
2020/12/09 06:04:59;;;;;;;47.73;20.90;;;;;;;-0.96;80.36;100582.55;4746423;62;21459;-85
2020/12/09 06:10:21;;;;;;;40.83;17.67;;;;;;;-0.97;80.40;100599.02;4720301;61;1136551;-85
2020/12/09 06:15:30;;;;;;;96.92;33.48;;;;;;;-0.99;80.45;100583.92;4785680;61;1140884;-84
2020/12/09 06:20:38;;;;;;;47.38;20.52;;;;;;;-0.97;80.28;100589.07;4748385;61;1140866;-84
2020/12/09 06:25:46;;;;;;;55.27;18.90;;;;;;;-0.99;80.33;100601.24;4772846;61;1140519;-85
2020/12/09 06:30:54;;;;;;;47.77;20.97;;;;;;;-1.00;80.47;100608.17;4850288;61;21538;-86
2020/12/09 06:36:24;;;;;;;46.73;20.63;;;;;;;-1.00;80.41;100610.77;4958249;56;1136296;-86
2020/12/09 06:41:30;;;;;;;46.70;20.93;;;;;;;-0.99;80.35;100603.84;5059913;57;1140480;-86
2020/12/09 06:46:47;;;;;;;68.87;25.62;;;;;;;-0.97;80.17;100621.08;5029183;57;1140535;-86
2020/12/09 06:51:53;;;;;;;105.87;38.47;;;;;;;-0.97;80.21;100618.48;5080442;56;1140561;-86
2020/12/09 06:57:20;;;;;;;112.27;36.43;;;;;;;-0.97;80.31;100618.48;5093461;56;1143184;-86
2020/12/09 07:02:28;;;;;;;74.50;28.90;;;;;;;-0.95;80.26;100631.42;5075868;56;1152172;-85
2020/12/09 07:07:59;;;;;;;88.80;35.50;;;;;;;-0.96;80.37;100621.92;5071783;56;1140678;-85
2020/12/09 07:13:07;;;;;;;82.20;29.57;;;;;;;-0.96;80.37;100619.33;5063220;56;1141090;-85
2020/12/09 07:18:13;;;;;;;68.77;23.73;;;;;;;-1.03;80.95;100617.34;5082490;56;1140686;-85
2020/12/09 07:23:19;;;;;;;62.33;27.37;;;;;;;-1.01;81.16;100619.45;5093663;56;1140715;-85
2020/12/09 07:28:25;;;;;;;76.83;37.27;;;;;;;-0.96;81.15;100619.33;5082098;56;1140829;-86
2020/12/09 07:33:33;;;;;;;72.75;30.43;;;;;;;-0.91;81.38;100631.71;5084629;56;1140816;-85
2020/12/09 07:38:44;;;;;;;68.60;29.53;;;;;;;-0.89;81.44;100625.58;5147848;56;1140695;-85
2020/12/09 07:43:58;;;;;;;61.97;26.37;;;;;;;-0.79;81.64;100637.42;5152519;56;1140680;-86
2020/12/09 07:49:13;;;;;;;73.53;28.40;;;;;;;-0.71;81.46;100639.78;5159433;55;1140611;-86
2020/12/09 07:54:19;;;;;;;59.03;25.40;;;;;;;-0.63;81.53;100649.95;5156993;56;1140671;-86
2020/12/09 07:59:25;;;;;;;50.80;22.00;;;;;;;-0.57;81.50;100657.55;5154391;55;1140720;-86
2020/12/09 08:04:30;;;;;;;50.40;22.77;;;;;;;-0.54;81.48;100650.52;5118606;56;1141021;-86
2020/12/09 08:09:36;;;;;;;45.12;19.40;;;;;;;-0.48;81.37;100650.80;5135734;56;1140727;-86
2020/12/09 08:14:42;;;;;;;57.55;23.73;;;;;;;-0.47;81.61;100646.00;5053955;56;1140777;-86
2020/12/09 08:20:08;;;;;;;42.00;17.83;;;;;;;-0.42;81.65;100667.48;5058790;56;1140899;-86
2020/12/09 08:25:14;;;;;;;56.47;23.50;;;;;;;-0.40;81.65;100673.03;5134182;56;1140581;-86
2020/12/09 08:30:27;;;;;;;41.57;17.63;;;;;;;-0.37;81.72;100666.45;5126663;56;1140802;-87
2020/12/09 08:35:47;;;;;;;;;;;;;;;-0.39;81.82;100669.55;5121842;56;1140870;-88
2020/12/09 08:40:56;;;;;;;55.30;23.80;;;;;;;-0.41;82.05;100673.08;5075145;56;974047;-88
2020/12/09 08:46:08;;;;;;;41.27;17.10;;;;;;;-0.44;82.22;100674.02;5056484;56;1138980;-88
2020/12/09 08:51:32;;;;;;;44.53;20.43;;;;;;;-0.44;82.08;100677.91;5054520;56;1140935;-89
2020/12/09 08:56:37;;;;;;;51.50;23.27;;;;;;;-0.45;82.09;100678.81;5089950;55;1140789;-88
2020/12/09 09:06:54;;;;;;;54.75;25.15;;;;;;;-0.41;82.37;100687.38;5165098;54;46599;-86
2020/12/09 09:12:00;;;;;;;67.30;28.92;;;;;;;-0.45;82.19;100691.80;4982771;56;1136469;-86
2020/12/09 09:17:06;;;;;;;43.87;17.87;;;;;;;-0.45;82.34;100697.45;5071962;56;1140852;-89
2020/12/09 09:22:14;;;;;;;68.43;27.37;;;;;;;-0.44;82.06;100692.66;5060072;56;1140814;-89
2020/12/09 09:27:20;;;;;;;44.70;16.80;;;;;;;-0.38;81.99;100696.38;5080239;56;1140572;-86
2020/12/09 09:32:28;;;;;;;53.70;19.50;;;;;;;-0.37;81.88;100701.53;5068253;56;1140584;-87
2020/12/09 09:37:34;;;;;;;43.57;18.07;;;;;;;-0.37;81.83;100713.67;4999795;56;1141239;-88
2020/12/09 09:42:40;;;;;;;92.70;35.98;;;;;;;-0.38;81.79;100720.62;5015510;57;1140904;-87
2020/12/09 09:47:46;;;;;;;38.43;15.03;;;;;;;-0.33;81.78;100711.40;5033593;57;1140819;-87
2020/12/09 09:52:51;;;;;;;49.13;21.40;;;;;;;-0.33;81.65;100711.84;5056411;55;1140837;-86
2020/12/09 09:57:57;;;;;;;50.37;20.87;;;;;;;-0.35;81.73;100706.69;5069641;56;1140562;-86
2020/12/09 10:03:03;;;;;;;59.93;23.47;;;;;;;-0.36;81.80;100701.94;5063727;56;1140745;-86
2020/12/09 10:08:08;;;;;;;59.93;26.30;;;;;;;-0.31;81.66;100705.70;4954576;56;1140921;-86
2020/12/09 10:13:15;;;;;;;51.10;19.20;;;;;;;-0.28;81.75;100693.05;5032958;56;1140723;-86
2020/12/09 10:18:21;;;;;;;45.73;17.97;;;;;;;-0.29;81.78;100696.53;5009794;56;1140858;-86
2020/12/09 10:23:26;;;;;;;82.73;32.77;;;;;;;-0.29;81.86;100697.84;5045164;56;1140722;-86
2020/12/09 10:28:32;;;;;;;88.57;31.27;;;;;;;-0.26;81.83;100683.02;5010427;56;1140886;-87
2020/12/09 10:33:37;;;;;;;66.25;18.80;;;;;;;-0.27;82.17;100689.10;5031901;56;1140715;-86
2020/12/09 10:38:43;;;;;;;83.90;25.67;;;;;;;-0.23;82.22;100677.73;4992205;56;1163637;-86
2020/12/09 10:44:03;;;;;;;55.13;19.50;;;;;;;-0.20;82.11;100684.14;5000469;57;1140856;-87
2020/12/09 10:55:45;;;;;;;51.70;19.48;;;;;;;-0.20;82.08;100691.94;4880822;58;1140856;-87
2020/12/09 11:01:23;;;;;;;120.10;38.77;;;;;;;-0.30;82.08;100672.30;4885413;58;1140727;-86
2020/12/09 11:07:28;;;;;;;;;;;;;;;;;;;;;
2020/12/09 11:12:54;;;;;;;63.57;23.37;;;;;;;-0.22;82.45;100692.88;4920709;58;1140856;-87
2020/12/09 11:19:04;;;;;;;131.97;34.80;;;;;;;-0.21;82.30;100681.13;4898085;58;1140898;-87
2020/12/09 11:30:08;;;;;;;59.83;21.70;;;;;;;-0.27;82.66;100683.91;4594557;62;1140535;-88
2020/12/09 11:35:30;;;;;;;67.60;24.12;;;;;;;-0.24;82.66;100682.52;4547514;62;1140849;-88
2020/12/09 11:40:45;;;;;;;73.42;28.38;;;;;;;-0.21;82.60;100669.88;4612959;62;1141102;-88
2020/12/09 11:46:03;;;;;;;101.00;39.10;;;;;;;-0.17;82.42;100671.50;4529521;63;1141361;-87
2020/12/09 11:52:35;;;;;;;100.10;41.73;;;;;;;-0.16;82.38;100666.25;4619502;61;1142959;-88
2020/12/09 11:57:22;;;;;;;87.00;32.67;;;;;;;-0.15;82.14;100648.88;4596467;62;1142769;-88
2020/12/09 12:03:05;;;;;;;90.05;33.88;;;;;;;-0.20;82.27;100646.45;4652707;60;1140985;-88
2020/12/09 12:09:06;;;;;;;135.97;47.03;;;;;;;-0.17;81.95;100645.50;5033544;55;1140845;-88
2020/12/09 12:14:43;;;;;;;80.85;30.72;;;;;;;-0.21;81.99;100646.49;5074511;56;1142945;-87
2020/12/09 12:20:31;;;;;;;77.33;30.83;;;;;;;-0.24;81.87;100655.67;4995821;57;1140357;-87
2020/12/09 12:32:34;;;;;;;97.43;36.17;;;;;;;-0.31;81.84;100647.69;5013493;56;1140511;-88
2020/12/09 12:38:22;;;;;;;;;;;;;;;;;;;;;
2020/12/09 12:43:57;;;;;;;80.90;32.45;;;;;;;-0.38;81.86;100655.66;4913988;58;1140756;-88
2020/12/09 12:49:20;;;;;;;;;;;;;;;-0.38;81.69;100641.81;4862525;58;1140538;-87
2020/12/09 12:55:15;;;;;;;;;;;;;;;;;;;;;
2020/12/09 13:00:52;;;;;;;91.83;35.60;;;;;;;-0.41;81.17;100651.00;4564914;61;1138504;-87
2020/12/09 13:06:34;;;;;;;;;;;;;;;;;;;;;
2020/12/09 13:11:52;;;;;;;79.23;31.10;;;;;;;-0.41;80.77;100649.25;4573669;63;1140650;-87
2020/12/09 13:16:57;;;;;;;75.07;30.70;;;;;;;-0.43;80.62;100665.78;4578422;62;1140514;-88
2020/12/09 13:22:04;;;;;;;67.87;28.43;;;;;;;-0.45;80.36;100671.02;4565520;62;1140574;-86
2020/12/09 13:27:12;;;;;;;72.80;29.50;;;;;;;-0.46;80.29;100662.81;4563768;62;1140474;-88
2020/12/09 13:32:17;;;;;;;80.63;32.97;;;;;;;-0.50;80.07;100665.58;4552594;63;1140525;-88
2020/12/09 13:37:23;;;;;;;90.27;34.63;;;;;;;-0.54;80.13;100662.21;4652114;61;1140555;-87
2020/12/09 13:42:28;;;;;;;118.60;66.80;;;;;;;-0.52;80.00;100663.02;4900970;59;1140485;-87
2020/12/09 13:47:37;;;;;;;106.03;42.55;;;;;;;-0.54;79.87;100660.91;4883435;58;1142817;-87
2020/12/09 13:52:42;;;;;;;74.60;32.53;;;;;;;-0.55;79.95;100664.41;4847478;58;1142607;-87
2020/12/09 13:57:48;;;;;;;90.97;34.07;;;;;;;-0.62;79.72;100650.36;4798423;59;1140982;-86
2020/12/09 14:02:55;;;;;;;97.50;36.73;;;;;;;-0.64;80.07;100657.34;4901578;59;1140739;-86
2020/12/09 14:08:03;;;;;;;83.17;30.73;;;;;;;-0.62;79.95;100654.26;4941390;58;1140747;-87
2020/12/09 14:13:10;;;;;;;90.97;33.33;;;;;;;-0.67;80.02;100650.48;4883087;58;1140533;-87
2020/12/09 14:18:23;;;;;;;89.30;40.53;;;;;;;-0.67;80.10;100640.55;4908872;58;1140741;-87
2020/12/09 14:23:39;;;;;;;78.90;32.43;;;;;;;-0.67;80.14;100647.89;4678781;60;1140751;-87
2020/12/09 14:28:58;;;;;;;85.87;38.02;;;;;;;-0.68;80.03;100646.63;4737390;58;1140455;-86
2020/12/09 14:34:13;;;;;;;84.85;38.92;;;;;;;-0.67;80.12;100649.64;4883560;58;1140416;-87
2020/12/09 14:39:38;;;;;;;80.60;34.90;;;;;;;-0.71;80.01;100654.91;4875829;58;1140704;-86
2020/12/09 14:44:45;;;;;;;80.90;34.43;;;;;;;-0.66;80.11;100669.52;4895033;58;1140673;-87
2020/12/09 14:49:51;;;;;;;89.70;36.43;;;;;;;-0.69;79.93;100670.45;4932399;57;1140869;-87
2020/12/09 14:54:59;;;;;;;81.95;31.15;;;;;;;-0.69;80.02;100666.56;4991363;57;1140651;-87
2020/12/09 15:00:06;;;;;;;65.73;23.67;;;;;;;-0.76;80.07;100652.89;4998963;57;1140958;-86
2020/12/09 15:05:12;;;;;;;78.47;34.93;;;;;;;-0.77;80.25;100653.81;5004085;57;1140807;-85
2020/12/09 15:10:18;;;;;;;105.90;38.90;;;;;;;-0.72;80.25;100664.90;5008245;57;1140466;-86
2020/12/09 15:15:27;;;;;;;882.38;394.82;;;;;;;-0.71;80.29;100658.81;5045467;58;1140378;-85
2020/12/09 15:20:32;;;;;;;120.13;52.73;;;;;;;-0.68;80.18;100660.47;5067569;55;1144849;-85
2020/12/09 15:25:37;;;;;;;208.30;90.70;;;;;;;-0.75;80.15;100657.64;5160363;56;1142603;-86
2020/12/09 15:30:43;;;;;;;170.53;71.90;;;;;;;-0.73;80.34;100670.13;5134594;55;1143317;-86
2020/12/09 15:35:49;;;;;;;114.80;45.83;;;;;;;-0.72;80.33;100670.09;5182870;54;1142442;-86
2020/12/09 15:40:55;;;;;;;145.73;55.97;;;;;;;-0.73;80.17;100674.03;5244585;54;1142451;-85
2020/12/09 15:46:02;;;;;;;77.97;31.10;;;;;;;-0.72;80.19;100673.98;5186322;54;1142456;-85
2020/12/09 15:51:08;;;;;;;100.10;37.00;;;;;;;-0.74;80.24;100678.81;5312104;54;1138418;-85
2020/12/09 15:56:15;;;;;;;109.17;45.53;;;;;;;-0.75;80.30;100682.30;5265356;56;21276;-85
2020/12/09 16:01:22;;;;;;;92.10;38.07;;;;;;;-0.73;80.35;100685.71;5314053;55;21290;-86
2020/12/09 16:06:28;;;;;;;98.50;41.17;;;;;;;-0.75;80.30;100687.50;5187758;55;1136258;-85
2020/12/09 16:11:33;;;;;;;91.90;36.77;;;;;;;-0.74;80.26;100681.41;5155763;56;1140701;-85
2020/12/09 16:16:39;;;;;;;87.85;39.45;;;;;;;-0.75;80.28;100681.86;5142027;55;1140827;-85
2020/12/09 16:21:44;;;;;;;91.37;41.67;;;;;;;-0.73;80.24;100677.92;5188168;54;1140718;-85
2020/12/09 16:26:58;;;;;;;101.10;45.37;;;;;;;-0.74;80.15;100681.41;5196820;55;1140330;-85
2020/12/09 16:32:08;;;;;;;85.47;34.40;;;;;;;-0.80;80.25;100682.45;5167936;55;1142703;-85
2020/12/09 16:37:15;;;;;;;79.27;30.53;;;;;;;-0.83;80.31;100685.14;5164971;55;1140539;-85
2020/12/09 16:42:21;;;;;;;76.25;30.35;;;;;;;-0.87;80.35;100682.66;5160162;55;1140607;-85
2020/12/09 16:47:27;;;;;;;72.63;26.40;;;;;;;-0.86;80.59;100690.86;5145630;56;1140328;-85
2020/12/09 16:52:34;;;;;;;84.30;36.13;;;;;;;-0.85;80.37;100679.58;5153019;54;1140687;-86
2020/12/09 16:57:39;;;;;;;77.93;30.87;;;;;;;-0.88;80.25;100698.68;5233951;54;1140629;-85
2020/12/09 17:02:45;;;;;;;260.07;106.17;;;;;;;-0.95;80.45;100697.61;5238953;55;1140460;-85
2020/12/09 17:08:10;;;;;;;70.03;29.37;;;;;;;-0.95;80.50;100695.88;5313132;55;1144653;-86
2020/12/09 17:13:08;;;;;;;85.32;34.13;;;;;;;-0.94;80.63;100703.21;5241019;54;1140760;-85
2020/12/09 17:18:14;;;;;;;254.23;74.17;;;;;;;-0.96;80.63;100693.31;5191526;54;1140724;-85
2020/12/09 17:23:21;;;;;;;87.47;39.87;;;;;;;-0.90;80.64;100705.66;5278049;54;1142405;-85
2020/12/09 17:28:27;;;;;;;142.30;52.23;;;;;;;-0.88;80.48;100697.83;5309958;55;21155;-86
2020/12/09 17:33:34;;;;;;;303.07;80.77;;;;;;;-0.86;80.42;100710.33;5275624;55;21430;-85
2020/12/09 17:38:40;;;;;;;91.90;39.80;;;;;;;-0.86;80.40;100706.44;5232554;55;1138446;-85
2020/12/09 17:43:46;;;;;;;207.03;60.30;;;;;;;-0.89;80.35;100702.62;5204872;55;1140529;-85
2020/12/09 17:48:55;;;;;;;102.03;36.97;;;;;;;-0.94;80.46;100696.72;5201435;54;1142530;-85
2020/12/09 17:54:01;;;;;;;64.93;23.90;;;;;;;-0.97;80.53;100685.97;5249186;54;1142486;-85
2020/12/09 17:59:06;;;;;;;165.27;55.03;;;;;;;-1.00;80.52;100677.41;5222554;54;1140641;-85
2020/12/09 18:04:12;;;;;;;131.30;46.67;;;;;;;-0.98;80.50;100689.91;5325218;55;1140406;-85
2020/12/09 18:09:18;;;;;;;170.33;63.23;;;;;;;-1.02;80.46;100689.58;5345725;55;21155;-85
2020/12/09 18:14:23;;;;;;;163.87;57.70;;;;;;;-1.03;80.62;100695.66;5279753;55;21148;-86
2020/12/09 18:19:29;;;;;;;122.50;48.47;;;;;;;-1.02;80.62;100688.28;5172267;57;21129;-85
2020/12/09 18:24:35;;;;;;;163.60;61.47;;;;;;;-1.02;80.62;100697.36;5172171;57;21122;-86
2020/12/09 18:29:40;;;;;;;138.93;53.23;;;;;;;-1.05;80.60;100691.80;5172175;56;1138324;-83
2020/12/09 18:34:46;;;;;;;93.77;36.93;;;;;;;-1.01;80.62;100690.83;5091785;56;1142471;-83
2020/12/09 18:39:52;;;;;;;187.53;75.05;;;;;;;-0.97;80.49;100691.61;5090705;56;1140465;-83
2020/12/09 18:44:58;;;;;;;166.00;57.80;;;;;;;-0.98;80.43;100686.02;5109423;56;1142460;-83
2020/12/09 18:50:04;;;;;;;454.53;186.77;;;;;;;-1.02;80.46;100686.53;5091977;56;1142935;-83
2020/12/09 18:55:10;;;;;;;211.87;102.17;;;;;;;-1.00;80.53;100698.17;5090713;56;1144928;-83
2020/12/09 19:00:15;;;;;;;140.10;56.33;;;;;;;-0.99;80.49;100691.64;5103647;56;1144934;-82
2020/12/09 19:05:21;;;;;;;104.60;42.50;;;;;;;-0.98;80.51;100680.38;5091422;56;1142660;-83
2020/12/09 19:10:27;;;;;;;107.73;41.67;;;;;;;-0.97;80.45;100674.73;5111620;56;1142596;-83
2020/12/09 19:15:34;;;;;;;108.00;41.10;;;;;;;-1.01;80.57;100679.60;5106711;56;1143613;-83
2020/12/09 19:20:39;;;;;;;85.45;34.85;;;;;;;-1.01;80.69;100684.79;5235992;55;1142662;-83
2020/12/09 19:25:45;;;;;;;115.47;43.95;;;;;;;-1.06;80.84;100690.09;5227814;54;1140712;-83
2020/12/09 19:30:50;;;;;;;86.55;30.95;;;;;;;-1.05;80.94;100684.02;5222896;55;1142869;-82
2020/12/09 19:35:56;;;;;;;130.23;48.77;;;;;;;-1.10;81.01;100676.38;5222405;55;1140987;-83
2020/12/09 19:41:02;;;;;;;88.90;34.73;;;;;;;-1.10;81.01;100676.38;5223792;55;1142801;-83
2020/12/09 19:46:08;;;;;;;418.97;201.60;;;;;;;-1.11;81.21;100677.72;5225098;55;1140973;-83
2020/12/09 19:51:13;;;;;;;548.07;206.50;;;;;;;-1.09;81.35;100675.48;5223612;55;1144796;-82
2020/12/09 19:56:28;;;;;;;451.00;248.07;;;;;;;-0.99;81.12;100684.30;5226295;55;1144931;-83
2020/12/09 20:01:35;;;;;;;154.53;59.37;;;;;;;-0.99;81.23;100692.09;5239096;55;1144932;-82
2020/12/09 20:06:40;;;;;;;110.30;40.10;;;;;;;-1.02;81.09;100703.85;5232151;55;1142753;-83
2020/12/09 20:11:49;;;;;;;159.77;55.17;;;;;;;-1.09;81.41;100700.59;5224002;55;1148402;-83
2020/12/09 20:16:56;;;;;;;128.20;47.23;;;;;;;-1.12;81.38;100701.52;5250225;55;1142397;-83
2020/12/09 20:22:02;;;;;;;116.10;47.00;;;;;;;-1.10;81.68;100697.59;5228935;55;1142789;-83
2020/12/09 20:27:09;;;;;;;183.27;63.67;;;;;;;-1.08;81.69;100699.70;5254740;55;1142385;-83
2020/12/09 20:32:14;;;;;;;101.00;37.20;;;;;;;-1.06;81.59;100713.45;5230596;55;1142475;-83
2020/12/09 20:37:20;;;;;;;126.73;45.87;;;;;;;-1.08;81.72;100704.89;5238308;55;1142800;-82
2020/12/09 20:42:25;;;;;;;107.50;39.53;;;;;;;-1.11;81.87;100708.41;5330015;55;21051;-83
2020/12/09 20:47:31;;;;;;;159.33;56.03;;;;;;;-1.11;81.94;100705.81;5227348;55;1138515;-83
2020/12/09 20:52:42;;;;;;;128.53;46.60;;;;;;;-1.07;81.65;100710.02;5273023;55;1142521;-85
2020/12/09 20:57:48;;;;;;;110.63;41.92;;;;;;;-1.07;81.70;100708.71;5237927;55;1143053;-86
2020/12/09 21:02:53;;;;;;;146.15;54.60;;;;;;;-1.09;81.80;100714.42;5232012;55;1142687;-85
2020/12/09 21:07:59;;;;;;;203.63;86.63;;;;;;;-1.09;81.71;100710.53;5228133;55;1142384;-86
2020/12/09 21:13:05;;;;;;;112.03;42.43;;;;;;;-1.08;81.80;100720.02;5235342;55;1142689;-86
2020/12/09 21:18:10;;;;;;;313.00;115.67;;;;;;;-1.13;81.85;100711.94;5224197;55;1142892;-85
2020/12/09 21:23:16;;;;;;;130.03;49.73;;;;;;;-1.16;82.09;100710.27;5253335;55;1144474;-85
2020/12/09 21:28:21;;;;;;;96.27;37.53;;;;;;;-1.16;81.84;100701.63;5275175;55;1142873;-85
2020/12/09 21:33:27;;;;;;;87.23;32.63;;;;;;;-1.15;81.81;100708.08;5245503;55;1140703;-85
2020/12/09 21:38:32;;;;;;;135.63;52.27;;;;;;;-1.15;81.86;100709.38;5225389;55;1141004;-85
2020/12/09 21:43:38;;;;;;;129.83;50.83;;;;;;;-1.10;81.78;100714.45;5250377;55;1142653;-86
2020/12/09 21:48:43;;;;;;;152.55;64.42;;;;;;;-1.12;81.78;100709.75;5230172;55;1142923;-85
2020/12/09 21:53:49;;;;;;;128.07;53.40;;;;;;;-1.12;82.05;100711.05;5232306;55;1149061;-84
2020/12/09 21:58:55;;;;;;;125.40;43.93;;;;;;;-1.12;81.93;100705.86;5245840;55;1143139;-85
2020/12/09 22:04:01;;;;;;;112.10;42.90;;;;;;;-1.10;81.97;100710.56;5225277;55;1142707;-85
2020/12/09 22:09:06;;;;;;;118.57;45.97;;;;;;;-1.14;82.13;100703.74;5245664;55;1142390;-83
2020/12/09 22:14:12;;;;;;;132.13;48.10;;;;;;;-1.16;82.30;100702.92;5234435;55;1142544;-82
2020/12/09 22:19:18;;;;;;;149.83;60.17;;;;;;;-1.14;82.13;100699.41;5248684;55;1142387;-82
2020/12/09 22:24:24;;;;;;;127.73;45.83;;;;;;;-1.11;82.31;100701.07;5227255;55;1142487;-83
2020/12/09 22:29:29;;;;;;;154.53;58.07;;;;;;;-1.12;82.23;100692.44;5229844;55;1142554;-83
2020/12/09 22:34:35;;;;;;;131.60;49.13;;;;;;;-1.13;82.08;100682.94;5254505;55;1142814;-83
2020/12/09 22:39:40;;;;;;;125.07;44.10;;;;;;;-1.14;82.35;100684.28;5253162;55;1142509;-82
2020/12/09 22:44:46;;;;;;;101.65;37.15;;;;;;;-1.17;82.35;100673.53;5232964;55;1143031;-83
2020/12/09 22:49:52;;;;;;;125.22;47.48;;;;;;;-1.14;82.38;100676.05;5233918;55;1142943;-83
2020/12/09 22:54:57;;;;;;;127.43;46.53;;;;;;;-1.12;82.35;100670.38;5224275;55;1142806;-83
2020/12/09 23:00:08;;;;;;;89.47;33.17;;;;;;;-1.14;82.56;100667.41;5229203;55;1142781;-83
2020/12/09 23:05:14;;;;;;;131.97;51.33;;;;;;;-1.17;82.58;100664.45;5234688;55;1140469;-83
2020/12/09 23:10:20;;;;;;;100.57;40.10;;;;;;;-1.20;82.71;100663.67;5294844;55;1142714;-83
2020/12/09 23:15:25;;;;;;;107.93;39.60;;;;;;;-1.24;83.13;100668.56;5250982;55;1142477;-83
2020/12/09 23:20:31;;;;;;;103.23;36.43;;;;;;;-1.30;83.24;100671.31;5235825;55;1142389;-83
2020/12/09 23:25:36;;;;;;;135.47;53.90;;;;;;;-1.32;83.33;100659.67;5225048;55;1142817;-82
2020/12/09 23:30:42;;;;;;;134.63;50.23;;;;;;;-1.29;83.03;100652.26;5216604;55;1143043;-82
2020/12/09 23:35:48;;;;;;;108.77;42.07;;;;;;;-1.26;83.33;100649.14;5303678;55;1140429;-83